sensor_id;sensor_type;location;lat;lon;timestamp;pressure;altitude;pressure_sealevel;temperature
28803;BMP280;15949;55.656;37.422;2022-10-14T00:00:21;100253.75;;;2.93
28803;BMP280;15949;55.656;37.422;2022-10-14T00:05:27;100267.84;;;2.85
28803;BMP280;15949;55.656;37.422;2022-10-14T00:10:36;100260.19;;;2.76
28803;BMP280;15949;55.656;37.422;2022-10-14T00:15:41;100264.47;;;2.65
28803;BMP280;15949;55.656;37.422;2022-10-14T00:20:58;100262.81;;;2.57
28803;BMP280;15949;55.656;37.422;2022-10-14T00:26:04;100259.00;;;2.54
28803;BMP280;15949;55.656;37.422;2022-10-14T00:31:10;100256.88;;;2.60
28803;BMP280;15949;55.656;37.422;2022-10-14T00:36:18;100265.72;;;2.71
28803;BMP280;15949;55.656;37.422;2022-10-14T00:41:27;100260.97;;;2.77
28803;BMP280;15949;55.656;37.422;2022-10-14T00:46:37;100251.97;;;2.78
28803;BMP280;15949;55.656;37.422;2022-10-14T00:51:47;100245.38;;;2.87
28803;BMP280;15949;55.656;37.422;2022-10-14T00:56:53;100255.94;;;2.91
28803;BMP280;15949;55.656;37.422;2022-10-14T01:01:59;100258.34;;;3.00
28803;BMP280;15949;55.656;37.422;2022-10-14T01:12:28;100259.19;;;3.04
28803;BMP280;15949;55.656;37.422;2022-10-14T01:18:03;100256.88;;;3.02
28803;BMP280;15949;55.656;37.422;2022-10-14T01:34:09;100249.84;;;2.87
28803;BMP280;15949;55.656;37.422;2022-10-14T01:39:20;100239.75;;;2.69
28803;BMP280;15949;55.656;37.422;2022-10-14T01:44:29;100243.16;;;2.51
28803;BMP280;15949;55.656;37.422;2022-10-14T01:49:38;100239.72;;;2.27
28803;BMP280;15949;55.656;37.422;2022-10-14T01:54:47;100240.94;;;2.14
28803;BMP280;15949;55.656;37.422;2022-10-14T01:59:54;100234.38;;;1.88
28803;BMP280;15949;55.656;37.422;2022-10-14T02:05:04;100230.13;;;1.68
28803;BMP280;15949;55.656;37.422;2022-10-14T02:15:38;100244.00;;;1.20
28803;BMP280;15949;55.656;37.422;2022-10-14T02:26:12;100236.03;;;1.01
28803;BMP280;15949;55.656;37.422;2022-10-14T02:31:19;100231.91;;;0.88
28803;BMP280;15949;55.656;37.422;2022-10-14T02:36:25;100236.88;;;0.77
28803;BMP280;15949;55.656;37.422;2022-10-14T02:41:34;100250.47;;;0.67
28803;BMP280;15949;55.656;37.422;2022-10-14T02:46:41;100248.41;;;0.60
28803;BMP280;15949;55.656;37.422;2022-10-14T02:51:47;100248.19;;;0.53
28803;BMP280;15949;55.656;37.422;2022-10-14T02:56:53;100244.50;;;0.54
28803;BMP280;15949;55.656;37.422;2022-10-14T03:01:58;100245.06;;;0.47
28803;BMP280;15949;55.656;37.422;2022-10-14T03:07:04;100248.03;;;0.46
28803;BMP280;15949;55.656;37.422;2022-10-14T03:12:10;100245.28;;;0.42
28803;BMP280;15949;55.656;37.422;2022-10-14T03:17:15;100244.09;;;0.40
28803;BMP280;15949;55.656;37.422;2022-10-14T03:22:21;100240.28;;;0.37
28803;BMP280;15949;55.656;37.422;2022-10-14T03:27:26;100236.34;;;0.31
28803;BMP280;15949;55.656;37.422;2022-10-14T03:32:32;100236.16;;;0.24
28803;BMP280;15949;55.656;37.422;2022-10-14T03:37:38;100238.22;;;0.18
28803;BMP280;15949;55.656;37.422;2022-10-14T03:42:43;100238.34;;;0.22
28803;BMP280;15949;55.656;37.422;2022-10-14T03:47:49;100218.31;;;0.29
28803;BMP280;15949;55.656;37.422;2022-10-14T03:52:54;100227.09;;;0.21
28803;BMP280;15949;55.656;37.422;2022-10-14T03:58:00;100226.00;;;0.10
28803;BMP280;15949;55.656;37.422;2022-10-14T04:03:05;100227.47;;;-0.05
28803;BMP280;15949;55.656;37.422;2022-10-14T04:08:11;100230.72;;;-0.08
28803;BMP280;15949;55.656;37.422;2022-10-14T04:13:16;100223.97;;;-0.09
28803;BMP280;15949;55.656;37.422;2022-10-14T04:18:22;100221.78;;;-0.07
28803;BMP280;15949;55.656;37.422;2022-10-14T04:23:28;100229.50;;;-0.11
28803;BMP280;15949;55.656;37.422;2022-10-14T04:28:34;100226.00;;;-0.02
28803;BMP280;15949;55.656;37.422;2022-10-14T04:33:40;100224.72;;;-0.09
28803;BMP280;15949;55.656;37.422;2022-10-14T04:38:45;100230.63;;;-0.12
28803;BMP280;15949;55.656;37.422;2022-10-14T04:43:51;100236.19;;;-0.13
28803;BMP280;15949;55.656;37.422;2022-10-14T04:48:56;100235.19;;;-0.09
28803;BMP280;15949;55.656;37.422;2022-10-14T04:54:02;100234.88;;;-0.07
28803;BMP280;15949;55.656;37.422;2022-10-14T04:59:09;100226.00;;;-0.02
28803;BMP280;15949;55.656;37.422;2022-10-14T05:04:14;100233.31;;;0.04
28803;BMP280;15949;55.656;37.422;2022-10-14T05:09:20;100238.88;;;0.15
28803;BMP280;15949;55.656;37.422;2022-10-14T05:14:26;100229.47;;;0.26
28803;BMP280;15949;55.656;37.422;2022-10-14T05:19:31;100227.50;;;0.35
28803;BMP280;15949;55.656;37.422;2022-10-14T05:24:37;100228.16;;;0.45
28803;BMP280;15949;55.656;37.422;2022-10-14T05:29:42;100234.88;;;0.58
28803;BMP280;15949;55.656;37.422;2022-10-14T05:34:48;100231.63;;;0.77
28803;BMP280;15949;55.656;37.422;2022-10-14T05:39:54;100229.16;;;0.96
28803;BMP280;15949;55.656;37.422;2022-10-14T05:44:59;100236.84;;;1.05
28803;BMP280;15949;55.656;37.422;2022-10-14T05:50:05;100241.75;;;1.19
28803;BMP280;15949;55.656;37.422;2022-10-14T05:55:11;100241.41;;;1.36
28803;BMP280;15949;55.656;37.422;2022-10-14T06:00:16;100236.16;;;1.52
28803;BMP280;15949;55.656;37.422;2022-10-14T06:05:24;100230.97;;;1.72
28803;BMP280;15949;55.656;37.422;2022-10-14T06:10:29;100228.50;;;1.95
28803;BMP280;15949;55.656;37.422;2022-10-14T06:15:35;100229.69;;;2.17
28803;BMP280;15949;55.656;37.422;2022-10-14T06:20:41;100233.88;;;2.37
28803;BMP280;15949;55.656;37.422;2022-10-14T06:25:46;100233.63;;;2.62
28803;BMP280;15949;55.656;37.422;2022-10-14T06:30:53;100234.84;;;2.87
28803;BMP280;15949;55.656;37.422;2022-10-14T06:36:01;100240.25;;;3.18
28803;BMP280;15949;55.656;37.422;2022-10-14T06:41:07;100239.53;;;3.44
28803;BMP280;15949;55.656;37.422;2022-10-14T06:46:12;100247.03;;;3.68
28803;BMP280;15949;55.656;37.422;2022-10-14T06:51:18;100241.75;;;3.95
28803;BMP280;15949;55.656;37.422;2022-10-14T06:56:23;100247.28;;;4.16
28803;BMP280;15949;55.656;37.422;2022-10-14T07:01:29;100245.72;;;4.42
28803;BMP280;15949;55.656;37.422;2022-10-14T07:06:35;100250.84;;;4.61
28803;BMP280;15949;55.656;37.422;2022-10-14T07:11:41;100251.75;;;4.76
28803;BMP280;15949;55.656;37.422;2022-10-14T07:16:47;100249.66;;;4.96
28803;BMP280;15949;55.656;37.422;2022-10-14T07:21:52;100248.22;;;5.02
28803;BMP280;15949;55.656;37.422;2022-10-14T07:26:58;100252.13;;;5.19
28803;BMP280;15949;55.656;37.422;2022-10-14T07:32:03;100248.00;;;5.22
28803;BMP280;15949;55.656;37.422;2022-10-14T07:37:09;100243.16;;;5.31
28803;BMP280;15949;55.656;37.422;2022-10-14T07:42:14;100244.84;;;5.57
28803;BMP280;15949;55.656;37.422;2022-10-14T07:47:20;100251.00;;;5.75
28803;BMP280;15949;55.656;37.422;2022-10-14T07:52:26;100235.25;;;5.97
28803;BMP280;15949;55.656;37.422;2022-10-14T07:57:32;100240.56;;;6.11
28803;BMP280;15949;55.656;37.422;2022-10-14T08:02:37;100224.03;;;6.39
28803;BMP280;15949;55.656;37.422;2022-10-14T08:07:43;100228.66;;;6.64
28803;BMP280;15949;55.656;37.422;2022-10-14T08:12:48;100232.41;;;6.77
28803;BMP280;15949;55.656;37.422;2022-10-14T08:17:55;100239.97;;;7.04
28803;BMP280;15949;55.656;37.422;2022-10-14T08:23:01;100232.44;;;7.06
28803;BMP280;15949;55.656;37.422;2022-10-14T08:28:07;100230.91;;;7.15
28803;BMP280;15949;55.656;37.422;2022-10-14T08:33:13;100235.81;;;7.17
28803;BMP280;15949;55.656;37.422;2022-10-14T08:38:19;100233.47;;;7.48
28803;BMP280;15949;55.656;37.422;2022-10-14T08:43:32;100228.56;;;7.57
28803;BMP280;15949;55.656;37.422;2022-10-14T08:48:40;100229.72;;;7.49
28803;BMP280;15949;55.656;37.422;2022-10-14T08:53:54;100223.63;;;7.59
28803;BMP280;15949;55.656;37.422;2022-10-14T08:59:12;100220.13;;;7.83
28803;BMP280;15949;55.656;37.422;2022-10-14T09:04:18;100221.56;;;7.99
28803;BMP280;15949;55.656;37.422;2022-10-14T09:09:29;100219.19;;;8.22
28803;BMP280;15949;55.656;37.422;2022-10-14T09:14:37;100208.28;;;8.62
28803;BMP280;15949;55.656;37.422;2022-10-14T09:20:14;100211.16;;;8.82
28803;BMP280;15949;55.656;37.422;2022-10-14T09:25:20;100214.44;;;9.00
28803;BMP280;15949;55.656;37.422;2022-10-14T09:30:29;100218.25;;;8.95
28803;BMP280;15949;55.656;37.422;2022-10-14T09:35:41;100209.50;;;8.95
28803;BMP280;15949;55.656;37.422;2022-10-14T09:40:51;100215.28;;;8.86
28803;BMP280;15949;55.656;37.422;2022-10-14T09:56:33;100206.59;;;9.24
28803;BMP280;15949;55.656;37.422;2022-10-14T10:01:49;100196.59;;;9.35
28803;BMP280;15949;55.656;37.422;2022-10-14T10:06:54;100203.88;;;9.61
28803;BMP280;15949;55.656;37.422;2022-10-14T10:12:26;100207.47;;;9.48
28803;BMP280;15949;55.656;37.422;2022-10-14T10:17:37;100209.44;;;9.02
28803;BMP280;15949;55.656;37.422;2022-10-14T10:22:45;100208.44;;;8.37
28803;BMP280;15949;55.656;37.422;2022-10-14T10:27:51;100213.88;;;8.22
28803;BMP280;15949;55.656;37.422;2022-10-14T10:33:11;100217.41;;;8.57
28803;BMP280;15949;55.656;37.422;2022-10-14T10:38:24;100219.78;;;8.48
28803;BMP280;15949;55.656;37.422;2022-10-14T11:00:19;100212.66;;;7.50
28803;BMP280;15949;55.656;37.422;2022-10-14T11:05:44;100223.13;;;7.89
28803;BMP280;15949;55.656;37.422;2022-10-14T11:11:06;100222.97;;;8.21
28803;BMP280;15949;55.656;37.422;2022-10-14T11:43:50;100216.38;;;7.77
28803;BMP280;15949;55.656;37.422;2022-10-14T11:49:04;100209.50;;;7.80
28803;BMP280;15949;55.656;37.422;2022-10-14T11:54:25;100216.06;;;7.47
28803;BMP280;15949;55.656;37.422;2022-10-14T12:05:17;100209.31;;;7.03
28803;BMP280;15949;55.656;37.422;2022-10-14T12:10:53;100201.41;;;6.74
28803;BMP280;15949;55.656;37.422;2022-10-14T12:16:02;100192.28;;;6.68
28803;BMP280;15949;55.656;37.422;2022-10-14T12:37:39;100177.16;;;6.51
28803;BMP280;15949;55.656;37.422;2022-10-14T12:53:28;100164.34;;;6.56
28803;BMP280;15949;55.656;37.422;2022-10-14T12:58:37;100156.78;;;6.73
28803;BMP280;15949;55.656;37.422;2022-10-14T13:03:56;100162.06;;;6.90
28803;BMP280;15949;55.656;37.422;2022-10-14T13:24:38;100155.88;;;7.36
28803;BMP280;15949;55.656;37.422;2022-10-14T13:30:05;100153.63;;;7.38
28803;BMP280;15949;55.656;37.422;2022-10-14T13:40:49;100154.00;;;7.41
28803;BMP280;15949;55.656;37.422;2022-10-14T13:46:01;100156.28;;;7.28
28803;BMP280;15949;55.656;37.422;2022-10-14T13:56:23;100147.66;;;6.95
28803;BMP280;15949;55.656;37.422;2022-10-14T14:01:37;100149.94;;;6.86
28803;BMP280;15949;55.656;37.422;2022-10-14T14:06:44;100146.94;;;6.80
28803;BMP280;15949;55.656;37.422;2022-10-14T14:11:54;100145.78;;;6.67
28803;BMP280;15949;55.656;37.422;2022-10-14T14:17:01;100149.56;;;6.66
28803;BMP280;15949;55.656;37.422;2022-10-14T14:22:20;100145.41;;;6.58
28803;BMP280;15949;55.656;37.422;2022-10-14T14:27:27;100144.28;;;6.52
28803;BMP280;15949;55.656;37.422;2022-10-14T14:32:34;100147.66;;;6.48
28803;BMP280;15949;55.656;37.422;2022-10-14T14:37:41;100151.84;;;6.50
28803;BMP280;15949;55.656;37.422;2022-10-14T14:42:57;100143.16;;;6.45
28803;BMP280;15949;55.656;37.422;2022-10-14T14:48:05;100151.81;;;6.39
28803;BMP280;15949;55.656;37.422;2022-10-14T14:53:15;100149.19;;;6.32
28803;BMP280;15949;55.656;37.422;2022-10-14T14:58:43;100144.25;;;6.30
28803;BMP280;15949;55.656;37.422;2022-10-14T15:03:56;100132.56;;;6.28
28803;BMP280;15949;55.656;37.422;2022-10-14T15:09:13;100138.59;;;6.28
28803;BMP280;15949;55.656;37.422;2022-10-14T15:14:47;100142.34;;;6.20
28803;BMP280;15949;55.656;37.422;2022-10-14T15:19:54;100145.38;;;6.08
28803;BMP280;15949;55.656;37.422;2022-10-14T15:25:04;100138.56;;;5.99
28803;BMP280;15949;55.656;37.422;2022-10-14T15:35:39;100145.69;;;5.95
28803;BMP280;15949;55.656;37.422;2022-10-14T15:40:46;100142.28;;;5.91
28803;BMP280;15949;55.656;37.422;2022-10-14T15:45:53;100146.03;;;5.90
28803;BMP280;15949;55.656;37.422;2022-10-14T15:51:20;100146.03;;;5.90
28803;BMP280;15949;55.656;37.422;2022-10-14T15:56:28;100143.38;;;5.90
28803;BMP280;15949;55.656;37.422;2022-10-14T16:01:36;100138.50;;;5.92
28803;BMP280;15949;55.656;37.422;2022-10-14T16:06:42;100137.75;;;5.92
28803;BMP280;15949;55.656;37.422;2022-10-14T16:11:47;100146.84;;;5.98
28803;BMP280;15949;55.656;37.422;2022-10-14T16:17:01;100143.84;;;5.99
28803;BMP280;15949;55.656;37.422;2022-10-14T16:22:08;100149.13;;;6.07
28803;BMP280;15949;55.656;37.422;2022-10-14T16:27:13;100154.81;;;6.09
28803;BMP280;15949;55.656;37.422;2022-10-14T16:32:19;100155.16;;;6.11
28803;BMP280;15949;55.656;37.422;2022-10-14T16:37:24;100152.16;;;6.12
28803;BMP280;15949;55.656;37.422;2022-10-14T16:42:30;100158.22;;;6.13
28803;BMP280;15949;55.656;37.422;2022-10-14T16:47:36;100154.06;;;6.22
28803;BMP280;15949;55.656;37.422;2022-10-14T16:52:44;100160.13;;;6.23
28803;BMP280;15949;55.656;37.422;2022-10-14T16:58:08;100152.19;;;6.23
28803;BMP280;15949;55.656;37.422;2022-10-14T17:03:13;100155.56;;;6.20
28803;BMP280;15949;55.656;37.422;2022-10-14T17:08:19;100148.41;;;6.17
28803;BMP280;15949;55.656;37.422;2022-10-14T17:13:24;100148.81;;;6.19
28803;BMP280;15949;55.656;37.422;2022-10-14T17:18:31;100153.66;;;6.20
28803;BMP280;15949;55.656;37.422;2022-10-14T17:23:39;100154.06;;;6.22
28803;BMP280;15949;55.656;37.422;2022-10-14T17:28:47;100153.31;;;6.22
28803;BMP280;15949;55.656;37.422;2022-10-14T17:33:53;100146.13;;;6.22
28803;BMP280;15949;55.656;37.422;2022-10-14T17:38:59;100150.31;;;6.27
28803;BMP280;15949;55.656;37.422;2022-10-14T17:44:05;100152.97;;;6.34
28803;BMP280;15949;55.656;37.422;2022-10-14T17:49:10;100158.25;;;6.34
28803;BMP280;15949;55.656;37.422;2022-10-14T17:54:17;100155.94;;;6.29
28803;BMP280;15949;55.656;37.422;2022-10-14T17:59:22;100153.31;;;6.29
28803;BMP280;15949;55.656;37.422;2022-10-14T18:04:28;100151.81;;;6.35
28803;BMP280;15949;55.656;37.422;2022-10-14T18:09:34;100159.00;;;6.35
28803;BMP280;15949;55.656;37.422;2022-10-14T18:14:40;100155.63;;;6.34
28803;BMP280;15949;55.656;37.422;2022-10-14T18:19:46;100158.66;;;6.36
28803;BMP280;15949;55.656;37.422;2022-10-14T18:24:51;100157.50;;;6.37
28803;BMP280;15949;55.656;37.422;2022-10-14T18:29:57;100161.28;;;6.36
28803;BMP280;15949;55.656;37.422;2022-10-14T18:35:03;100165.41;;;6.30
28803;BMP280;15949;55.656;37.422;2022-10-14T18:40:10;100155.94;;;6.22
28803;BMP280;15949;55.656;37.422;2022-10-14T18:45:15;100158.97;;;6.10
28803;BMP280;15949;55.656;37.422;2022-10-14T18:50:21;100161.16;;;5.86
28803;BMP280;15949;55.656;37.422;2022-10-14T18:55:27;100161.06;;;5.65
28803;BMP280;15949;55.656;37.422;2022-10-14T19:00:32;100165.16;;;5.48
28803;BMP280;15949;55.656;37.422;2022-10-14T19:05:38;100160.84;;;5.29
28803;BMP280;15949;55.656;37.422;2022-10-14T19:10:44;100166.03;;;5.11
28803;BMP280;15949;55.656;37.422;2022-10-14T19:21:12;100164.25;;;4.78
28803;BMP280;15949;55.656;37.422;2022-10-14T19:26:21;100166.44;;;4.65
28803;BMP280;15949;55.656;37.422;2022-10-14T19:31:32;100168.56;;;4.49
28803;BMP280;15949;55.656;37.422;2022-10-14T19:36:38;100169.56;;;4.40
28803;BMP280;15949;55.656;37.422;2022-10-14T19:41:44;100173.56;;;4.27
28803;BMP280;15949;55.656;37.422;2022-10-14T19:46:51;100176.47;;;4.15
28803;BMP280;15949;55.656;37.422;2022-10-14T19:51:57;100182.34;;;4.01
28803;BMP280;15949;55.656;37.422;2022-10-14T19:57:02;100176.88;;;3.87
28803;BMP280;15949;55.656;37.422;2022-10-14T20:02:08;100179.84;;;3.82
28803;BMP280;15949;55.656;37.422;2022-10-14T20:07:14;100184.50;;;3.65
28803;BMP280;15949;55.656;37.422;2022-10-14T20:12:20;100177.22;;;3.55
28803;BMP280;15949;55.656;37.422;2022-10-14T20:17:26;100182.28;;;3.41
28803;BMP280;15949;55.656;37.422;2022-10-14T20:22:32;100179.91;;;3.32
28803;BMP280;15949;55.656;37.422;2022-10-14T20:27:37;100173.72;;;3.21
28803;BMP280;15949;55.656;37.422;2022-10-14T20:32:43;100173.66;;;3.17
28803;BMP280;15949;55.656;37.422;2022-10-14T20:37:48;100169.38;;;3.09
28803;BMP280;15949;55.656;37.422;2022-10-14T20:42:55;100172.41;;;3.07
28803;BMP280;15949;55.656;37.422;2022-10-14T20:48:00;100174.84;;;2.97
28803;BMP280;15949;55.656;37.422;2022-10-14T20:53:06;100169.16;;;2.95
28803;BMP280;15949;55.656;37.422;2022-10-14T20:58:11;100170.16;;;2.86
28803;BMP280;15949;55.656;37.422;2022-10-14T21:03:17;100170.84;;;2.83
28803;BMP280;15949;55.656;37.422;2022-10-14T21:08:22;100171.94;;;2.82
28803;BMP280;15949;55.656;37.422;2022-10-14T21:13:29;100169.41;;;2.86
28803;BMP280;15949;55.656;37.422;2022-10-14T21:18:35;100173.94;;;2.89
28803;BMP280;15949;55.656;37.422;2022-10-14T21:23:40;100176.25;;;2.90
28803;BMP280;15949;55.656;37.422;2022-10-14T21:28:46;100176.72;;;2.96
28803;BMP280;15949;55.656;37.422;2022-10-14T21:33:56;100182.09;;;3.03
28803;BMP280;15949;55.656;37.422;2022-10-14T21:39:13;100182.53;;;3.09
28803;BMP280;15949;55.656;37.422;2022-10-14T21:44:19;100185.72;;;3.18
28803;BMP280;15949;55.656;37.422;2022-10-14T21:49:25;100186.28;;;3.31
28803;BMP280;15949;55.656;37.422;2022-10-14T21:54:31;100191.72;;;3.42
28803;BMP280;15949;55.656;37.422;2022-10-14T21:59:36;100193.03;;;3.55
28803;BMP280;15949;55.656;37.422;2022-10-14T22:04:42;100194.69;;;3.67
28803;BMP280;15949;55.656;37.422;2022-10-14T22:09:47;100192.56;;;3.76
28803;BMP280;15949;55.656;37.422;2022-10-14T22:14:53;100195.34;;;3.87
28803;BMP280;15949;55.656;37.422;2022-10-14T22:19:59;100192.84;;;3.97
28803;BMP280;15949;55.656;37.422;2022-10-14T22:25:04;100192.94;;;4.05
28803;BMP280;15949;55.656;37.422;2022-10-14T22:30:11;100195.31;;;4.13
28803;BMP280;15949;55.656;37.422;2022-10-14T22:35:17;100191.59;;;4.21
28803;BMP280;15949;55.656;37.422;2022-10-14T22:40:22;100190.81;;;4.17
28803;BMP280;15949;55.656;37.422;2022-10-14T22:45:28;100193.13;;;4.22
28803;BMP280;15949;55.656;37.422;2022-10-14T22:50:34;100199.16;;;4.23
28803;BMP280;15949;55.656;37.422;2022-10-14T22:55:39;100199.53;;;4.21
28803;BMP280;15949;55.656;37.422;2022-10-14T23:00:45;100196.59;;;4.27
28803;BMP280;15949;55.656;37.422;2022-10-14T23:05:50;100198.59;;;4.37
28803;BMP280;15949;55.656;37.422;2022-10-14T23:10:57;100198.19;;;4.35
28803;BMP280;15949;55.656;37.422;2022-10-14T23:16:05;100191.78;;;4.36
28803;BMP280;15949;55.656;37.422;2022-10-14T23:26:22;100195.28;;;4.47
28803;BMP280;15949;55.656;37.422;2022-10-14T23:31:30;100196.66;;;4.34
28803;BMP280;15949;55.656;37.422;2022-10-14T23:36:36;100195.25;;;4.43
28803;BMP280;15949;55.656;37.422;2022-10-14T23:41:41;100197.38;;;4.31
28803;BMP280;15949;55.656;37.422;2022-10-14T23:46:47;100202.38;;;4.43
28803;BMP280;15949;55.656;37.422;2022-10-14T23:51:54;100186.53;;;4.39
28803;BMP280;15949;55.656;37.422;2022-10-14T23:57:00;100189.66;;;4.49
